createdAt,value
2018-07-08T00:02:21.715Z,6.10
2018-07-08T00:04:50.585Z,5.73
2018-07-08T00:07:19.382Z,6.40
2018-07-08T00:09:48.838Z,7.40
2018-07-08T00:12:17.785Z,5.47
2018-07-08T00:14:46.625Z,5.40
2018-07-08T00:17:15.637Z,5.63
2018-07-08T00:19:44.661Z,5.77
2018-07-08T00:22:13.742Z,5.53
2018-07-08T00:24:42.587Z,5.13
2018-07-08T00:27:11.586Z,4.53
2018-07-08T00:29:40.390Z,8.07
2018-07-08T00:32:09.305Z,5.20
2018-07-08T00:34:38.373Z,5.73
2018-07-08T00:37:07.521Z,8.90
2018-07-08T00:39:36.894Z,5.93
2018-07-08T00:42:06.027Z,5.40
2018-07-08T00:44:34.793Z,4.83
2018-07-08T00:47:03.675Z,4.93
2018-07-08T00:49:32.430Z,5.50
2018-07-08T00:52:01.433Z,8.10
2018-07-08T00:54:30.351Z,6.43
2018-07-08T00:56:59.172Z,6.90
2018-07-08T00:59:27.863Z,5.53
2018-07-08T01:01:56.613Z,5.93
2018-07-08T01:04:25.567Z,5.17
2018-07-08T01:06:54.465Z,4.57
2018-07-08T01:09:23.270Z,5.10
2018-07-08T01:11:52.186Z,4.37
2018-07-08T01:14:21.363Z,4.50
2018-07-08T01:16:50.350Z,4.50
2018-07-08T01:19:19.190Z,5.73
2018-07-08T01:21:47.964Z,4.30
2018-07-08T01:24:16.974Z,4.60
2018-07-08T01:26:45.879Z,5.00
2018-07-08T01:29:14.950Z,5.23
2018-07-08T01:31:43.748Z,5.30
2018-07-08T01:34:12.673Z,4.60
2018-07-08T01:36:41.481Z,4.77
2018-07-08T01:39:10.349Z,4.83
2018-07-08T01:41:39.244Z,4.97
2018-07-08T01:44:08.126Z,4.30
2018-07-08T01:46:37.623Z,5.17
2018-07-08T01:49:06.569Z,5.47
2018-07-08T01:51:35.549Z,5.33
2018-07-08T01:54:04.445Z,5.50
2018-07-08T01:56:33.547Z,4.17
2018-07-08T01:59:02.533Z,4.73
2018-07-08T02:01:31.369Z,4.00
2018-07-08T02:04:00.320Z,4.90
2018-07-08T02:06:29.484Z,22.73
2018-07-08T02:08:58.852Z,9.73
2018-07-08T02:11:28.195Z,20.70
2018-07-08T02:13:57.274Z,9.67
2018-07-08T02:16:26.230Z,5.13
2018-07-08T02:18:55.088Z,5.10
2018-07-08T02:21:24.690Z,5.37
2018-07-08T02:23:53.537Z,6.87
2018-07-08T02:26:22.557Z,5.13
2018-07-08T02:28:51.802Z,11.20
2018-07-08T02:31:20.584Z,6.00
2018-07-08T02:33:49.604Z,4.90
2018-07-08T02:36:18.412Z,5.07
2018-07-08T02:38:47.391Z,5.73
2018-07-08T02:41:16.362Z,7.10
2018-07-08T02:43:45.270Z,17.20
2018-07-08T02:46:14.229Z,12.03
2018-07-08T02:48:49.709Z,11.23
2018-07-08T02:51:18.783Z,7.50
2018-07-08T02:53:47.734Z,6.70
2018-07-08T02:56:16.669Z,6.97
2018-07-08T02:58:45.721Z,6.20
2018-07-08T03:01:14.710Z,15.13
2018-07-08T03:03:43.664Z,14.70
2018-07-08T03:06:12.550Z,14.40
2018-07-08T03:08:41.430Z,8.90
2018-07-08T03:11:10.355Z,7.97
2018-07-08T03:13:39.528Z,10.33
2018-07-08T03:16:08.682Z,10.17
2018-07-08T03:18:37.716Z,8.40
2018-07-08T03:21:06.590Z,5.93
2018-07-08T03:23:35.544Z,5.37
2018-07-08T03:26:04.541Z,5.33
2018-07-08T03:28:33.472Z,5.10
2018-07-08T03:31:02.367Z,4.77
2018-07-08T03:33:31.433Z,4.57
2018-07-08T03:36:00.288Z,4.80
2018-07-08T03:38:29.257Z,4.77
2018-07-08T03:40:58.004Z,4.73
2018-07-08T03:43:26.890Z,5.23
2018-07-08T03:45:55.861Z,5.03
2018-07-08T03:48:24.634Z,5.20
2018-07-08T03:50:53.425Z,5.07
2018-07-08T03:53:22.402Z,5.47
2018-07-08T03:55:51.379Z,4.87
2018-07-08T03:58:20.339Z,5.80
2018-07-08T04:00:49.280Z,4.67
2018-07-08T04:03:18.187Z,4.90
2018-07-08T04:05:47.071Z,4.90
2018-07-08T04:08:15.944Z,5.60
2018-07-08T04:10:44.854Z,4.70
2018-07-08T04:13:13.617Z,4.70
2018-07-08T04:15:42.522Z,5.20
2018-07-08T04:18:11.354Z,5.40
2018-07-08T04:20:40.787Z,5.17
2018-07-08T04:23:09.907Z,4.40
2018-07-08T04:25:38.920Z,5.10
2018-07-08T04:28:07.902Z,4.60
2018-07-08T04:30:36.746Z,4.67
2018-07-08T04:33:06.149Z,4.97
2018-07-08T04:35:34.975Z,4.30
2018-07-08T04:38:03.924Z,5.10
2018-07-08T04:40:32.683Z,4.53
2018-07-08T04:43:01.442Z,4.50
2018-07-08T04:45:30.676Z,3.30
2018-07-08T04:47:59.445Z,4.70
2018-07-08T04:50:28.238Z,4.37
2018-07-08T04:52:57.409Z,4.53
2018-07-08T04:55:26.161Z,4.20
2018-07-08T04:57:55.496Z,5.33
2018-07-08T05:00:24.427Z,4.30
2018-07-08T05:02:53.487Z,5.00
2018-07-08T05:05:22.487Z,4.83
2018-07-08T05:07:51.371Z,5.20
2018-07-08T05:10:20.664Z,5.17
2018-07-08T05:12:49.791Z,5.00
2018-07-08T05:15:18.883Z,4.67
2018-07-08T05:17:47.996Z,4.73
2018-07-08T05:20:16.768Z,4.03
2018-07-08T05:22:45.539Z,4.33
2018-07-08T05:25:14.461Z,4.40
2018-07-08T05:27:43.397Z,4.70
2018-07-08T05:30:12.419Z,5.00
2018-07-08T05:32:41.601Z,4.53
2018-07-08T05:35:10.627Z,5.53
2018-07-08T05:37:39.598Z,4.87
2018-07-08T05:40:08.635Z,4.50
2018-07-08T05:42:37.634Z,4.80
2018-07-08T05:45:06.711Z,4.40
2018-07-08T05:47:35.946Z,3.90
2018-07-08T05:50:05.894Z,3.80
2018-07-08T05:52:34.719Z,3.50
2018-07-08T05:55:03.626Z,3.90
2018-07-08T05:57:32.566Z,3.07
2018-07-08T06:00:01.342Z,3.70
2018-07-08T06:02:30.111Z,4.30
2018-07-08T06:04:59.101Z,3.90
2018-07-08T06:07:28.072Z,3.20
2018-07-08T06:09:57.025Z,3.40
2018-07-08T06:12:26.248Z,3.60
2018-07-08T06:14:55.116Z,3.80
2018-07-08T06:17:23.970Z,4.53
2018-07-08T06:19:53.019Z,4.17
2018-07-08T06:22:21.828Z,3.80
2018-07-08T06:24:50.701Z,3.33
2018-07-08T06:27:19.580Z,4.03
2018-07-08T06:29:48.495Z,3.83
2018-07-08T06:32:17.529Z,4.53
2018-07-08T06:34:46.308Z,4.47
2018-07-08T06:37:15.280Z,4.13
2018-07-08T06:39:44.307Z,5.10
2018-07-08T06:42:13.095Z,4.57
2018-07-08T06:44:42.016Z,4.87
2018-07-08T06:47:11.071Z,4.13
2018-07-08T06:49:40.192Z,4.27
2018-07-08T06:52:09.182Z,4.13
2018-07-08T06:54:38.191Z,4.07
2018-07-08T06:57:07.649Z,4.70
2018-07-08T06:59:36.534Z,4.07
2018-07-08T07:02:05.520Z,4.53
2018-07-08T07:04:34.431Z,4.00
2018-07-08T07:07:03.310Z,3.70
2018-07-08T07:09:32.321Z,3.90
2018-07-08T07:12:01.524Z,3.77
2018-07-08T07:14:30.645Z,3.43
2018-07-08T07:16:59.968Z,3.77
2018-07-08T07:19:28.986Z,3.50
2018-07-08T07:21:57.994Z,3.30
2018-07-08T07:24:27.064Z,3.20
2018-07-08T07:26:55.903Z,2.90
2018-07-08T07:29:24.832Z,3.70
2018-07-08T07:31:53.708Z,3.23
2018-07-08T07:34:22.492Z,4.70
2018-07-08T07:36:51.239Z,3.10
2018-07-08T07:39:20.555Z,3.10
2018-07-08T07:41:49.311Z,2.90
2018-07-08T07:44:18.054Z,2.90
2018-07-08T07:46:46.917Z,2.20
2018-07-08T07:49:16.050Z,2.93
2018-07-08T07:51:45.165Z,2.50
2018-07-08T07:54:13.922Z,2.70
2018-07-08T07:56:43.162Z,2.40
2018-07-08T07:59:12.052Z,2.50
2018-07-08T08:01:40.998Z,2.63
2018-07-08T08:04:10.068Z,2.73
2018-07-08T08:06:39.083Z,2.70
2018-07-08T08:09:08.437Z,2.40
2018-07-08T08:11:37.622Z,3.10
2018-07-08T08:14:06.950Z,2.63
2018-07-08T08:16:35.929Z,2.53
2018-07-08T08:19:04.896Z,1.90
2018-07-08T08:21:34.030Z,1.77
2018-07-08T08:24:03.183Z,2.40
2018-07-08T08:26:32.260Z,2.00
2018-07-08T08:29:01.617Z,2.03
2018-07-08T08:31:30.374Z,1.90
2018-07-08T08:35:09.433Z,2.30
2018-07-08T08:37:40.385Z,2.13
2018-07-08T08:40:10.328Z,1.60
2018-07-08T08:42:39.450Z,1.57
2018-07-08T08:45:10.572Z,2.00
2018-07-08T08:47:39.398Z,1.33
2018-07-08T08:50:09.294Z,1.70
2018-07-08T08:52:38.186Z,1.50
2018-07-08T08:55:08.628Z,1.37
2018-07-08T08:57:37.876Z,1.10
2018-07-08T09:00:13.931Z,1.50
2018-07-08T09:02:42.940Z,1.50
2018-07-08T09:05:12.400Z,1.80
2018-07-08T09:07:41.749Z,1.83
2018-07-08T09:10:10.668Z,1.43
2018-07-08T09:12:39.625Z,2.00
2018-07-08T09:15:08.453Z,1.70
2018-07-08T09:17:37.677Z,1.73
2018-07-08T09:20:06.931Z,2.13
2018-07-08T09:22:37.392Z,1.70
2018-07-08T09:25:06.971Z,2.27
2018-07-08T09:27:35.883Z,2.40
2018-07-08T09:30:05.260Z,3.60
2018-07-08T09:32:34.097Z,2.07
2018-07-08T09:35:03.047Z,2.07
2018-07-08T09:37:32.236Z,2.37
2018-07-08T09:40:01.398Z,2.33
2018-07-08T09:42:30.641Z,2.47
2018-07-08T09:44:59.807Z,1.90
2018-07-08T09:47:28.855Z,1.50
2018-07-08T09:49:57.597Z,2.23
2018-07-08T09:52:26.447Z,1.80
2018-07-08T09:54:55.386Z,1.67
2018-07-08T09:57:24.564Z,1.70
2018-07-08T09:59:53.286Z,1.30
2018-07-08T10:02:22.219Z,1.73
2018-07-08T10:04:51.223Z,1.80
2018-07-08T10:07:20.273Z,1.50
2018-07-08T10:09:49.163Z,1.60
2018-07-08T10:12:18.117Z,1.50
2018-07-08T10:14:47.077Z,1.80
2018-07-08T10:17:16.066Z,1.57
2018-07-08T10:19:45.411Z,1.57
2018-07-08T10:22:14.562Z,1.33
2018-07-08T10:24:43.586Z,1.10
2018-07-08T10:27:33.298Z,1.20
2018-07-08T10:30:02.380Z,1.27
2018-07-08T10:32:31.375Z,1.40
2018-07-08T10:35:00.495Z,1.13
2018-07-08T10:37:29.670Z,2.03
2018-07-08T10:39:58.654Z,1.17
2018-07-08T10:42:27.763Z,1.67
2018-07-08T10:44:56.624Z,1.33
2018-07-08T10:47:26.009Z,1.50
2018-07-08T10:49:54.842Z,1.33
2018-07-08T10:52:23.811Z,1.50
2018-07-08T10:54:59.588Z,1.27
2018-07-08T10:57:28.785Z,1.37
2018-07-08T10:59:58.116Z,0.87
2018-07-08T11:02:27.178Z,1.10
2018-07-08T11:04:56.571Z,1.37
2018-07-08T11:07:25.819Z,1.13
2018-07-08T11:09:55.242Z,1.37
2018-07-08T11:12:24.515Z,1.00
2018-07-08T11:14:53.645Z,0.90
2018-07-08T11:17:22.579Z,1.10
2018-07-08T11:19:51.602Z,0.83
2018-07-08T11:22:20.756Z,0.93
2018-07-08T11:24:50.344Z,1.00
2018-07-08T11:27:19.300Z,0.90
2018-07-08T11:29:48.365Z,1.73
2018-07-08T11:32:17.250Z,0.80
2018-07-08T11:34:46.937Z,1.10
2018-07-08T11:37:22.489Z,0.80
2018-07-08T11:39:51.451Z,0.80
2018-07-08T11:42:20.569Z,0.63
2018-07-08T11:44:49.601Z,0.80
2018-07-08T11:47:18.788Z,0.90
2018-07-08T11:49:48.328Z,1.03
2018-07-08T11:52:17.089Z,1.50
2018-07-08T11:54:46.264Z,1.20
2018-07-08T11:57:15.311Z,1.00
2018-07-08T11:59:44.537Z,1.30
2018-07-08T12:02:13.335Z,0.90
2018-07-08T12:04:42.550Z,1.00
2018-07-08T12:07:11.678Z,0.90
2018-07-08T12:09:40.693Z,1.00
2018-07-08T12:12:09.720Z,0.90
2018-07-08T12:14:38.528Z,0.83
2018-07-08T12:17:07.715Z,0.93
2018-07-08T12:19:38.189Z,1.03
2018-07-08T12:22:07.426Z,1.07
2018-07-08T12:24:36.415Z,1.20
2018-07-08T12:27:05.369Z,0.90
2018-07-08T12:29:34.233Z,0.90
2018-07-08T12:32:03.070Z,0.90
2018-07-08T12:34:32.085Z,0.93
2018-07-08T12:37:01.236Z,0.90
2018-07-08T12:39:30.806Z,0.80
2018-07-08T12:41:59.631Z,1.07
2018-07-08T12:44:28.772Z,1.10
2018-07-08T12:46:59.262Z,1.00
2018-07-08T12:49:28.334Z,1.13
2018-07-08T12:51:57.962Z,1.20
2018-07-08T12:54:28.723Z,0.87
2018-07-08T12:56:58.038Z,0.80
2018-07-08T12:59:27.127Z,1.10
2018-07-08T13:01:56.142Z,0.90
2018-07-08T13:04:25.309Z,0.70
2018-07-08T13:06:54.645Z,0.80
2018-07-08T13:09:23.563Z,0.60
2018-07-08T13:11:52.472Z,1.30
2018-07-08T13:14:21.321Z,0.90
2018-07-08T13:16:50.988Z,0.90
2018-07-08T13:19:20.378Z,0.70
2018-07-08T13:21:49.332Z,0.70
2018-07-08T13:24:18.249Z,0.70
2018-07-08T13:26:46.952Z,0.70
2018-07-08T13:29:16.849Z,1.27
2018-07-08T13:31:45.781Z,1.03
2018-07-08T13:34:17.321Z,0.93
2018-07-08T13:36:47.786Z,1.00
2018-07-08T13:39:17.009Z,0.90
2018-07-08T13:41:45.934Z,0.87
2018-07-08T13:44:14.959Z,1.10
2018-07-08T13:46:43.992Z,1.23
2018-07-08T13:49:16.006Z,0.80
2018-07-08T13:51:44.902Z,0.60
2018-07-08T13:54:13.702Z,0.90
2018-07-08T13:56:42.768Z,1.10
2018-07-08T13:59:11.843Z,0.77
2018-07-08T14:01:40.678Z,1.10
2018-07-08T14:04:09.401Z,1.10
2018-07-08T14:06:38.256Z,1.07
2018-07-08T14:09:07.477Z,1.20
2018-07-08T14:11:36.966Z,0.90
2018-07-08T14:14:09.098Z,1.60
2018-07-08T14:16:38.195Z,1.20
2018-07-08T14:19:07.154Z,1.30
2018-07-08T14:21:36.605Z,0.87
2018-07-08T14:24:05.507Z,0.87
2018-07-08T14:26:34.616Z,1.20
2018-07-08T14:29:03.792Z,1.10
2018-07-08T14:31:32.698Z,1.33
2018-07-08T14:34:01.550Z,1.50
2018-07-08T14:36:30.438Z,1.30
2018-07-08T14:38:59.550Z,1.30
2018-07-08T14:41:28.528Z,0.93
2018-07-08T14:43:57.404Z,1.07
2018-07-08T14:46:26.964Z,1.00
2018-07-08T14:48:55.734Z,1.30
2018-07-08T14:51:24.819Z,1.70
2018-07-08T14:53:54.058Z,1.57
2018-07-08T14:56:23.531Z,0.97
2018-07-08T14:58:52.893Z,1.40
2018-07-08T15:01:24.189Z,1.30
2018-07-08T15:03:53.748Z,1.40
2018-07-08T15:06:23.079Z,1.17
2018-07-08T15:08:52.237Z,1.63
2018-07-08T15:11:21.084Z,1.40
2018-07-08T15:13:50.354Z,1.27
2018-07-08T15:16:19.124Z,1.03
2018-07-08T15:18:48.258Z,1.33
2018-07-08T15:21:17.174Z,1.50
2018-07-08T15:23:46.281Z,1.40
2018-07-08T15:26:15.138Z,1.30
2018-07-08T15:28:44.182Z,1.50
2018-07-08T15:31:13.093Z,1.33
2018-07-08T15:33:42.199Z,1.30
2018-07-08T15:36:11.354Z,1.87
2018-07-08T15:38:40.435Z,2.00
2018-07-08T15:41:09.455Z,1.87
2018-07-08T15:43:38.477Z,1.60
2018-07-08T15:46:07.386Z,1.47
2018-07-08T15:48:36.552Z,1.33
2018-07-08T15:51:05.765Z,1.90
2018-07-08T15:53:34.866Z,1.63
2018-07-08T15:56:04.389Z,1.47
2018-07-08T15:58:33.265Z,1.30
2018-07-08T16:01:02.274Z,1.37
2018-07-08T16:03:31.118Z,1.60
2018-07-08T16:06:00.300Z,1.40
2018-07-08T16:08:29.864Z,1.40
2018-07-08T16:10:58.945Z,1.50
2018-07-08T16:13:28.837Z,1.60
2018-07-08T16:15:58.122Z,1.23
2018-07-08T16:18:27.601Z,1.27
2018-07-08T16:20:56.307Z,1.57
2018-07-08T16:23:25.471Z,1.27
2018-07-08T16:25:55.915Z,1.20
2018-07-08T16:28:24.925Z,1.50
2018-07-08T16:30:53.975Z,1.50
2018-07-08T16:33:23.038Z,1.37
2018-07-08T16:35:55.456Z,1.40
2018-07-08T16:38:24.598Z,1.33
2018-07-08T16:40:55.167Z,1.50
2018-07-08T16:43:24.387Z,1.30
2018-07-08T16:45:53.224Z,1.90
2018-07-08T16:48:22.333Z,1.63
2018-07-08T16:50:51.372Z,1.00
2018-07-08T16:53:20.557Z,1.93
2018-07-08T16:55:49.450Z,1.30
2018-07-08T16:58:18.318Z,1.50
2018-07-08T17:00:47.146Z,1.40
2018-07-08T17:03:15.954Z,1.67
2018-07-08T17:05:45.221Z,1.30
2018-07-08T17:08:14.189Z,1.30
2018-07-08T17:10:43.516Z,1.80
2018-07-08T17:13:12.541Z,2.10
2018-07-08T17:15:41.577Z,2.77
2018-07-08T17:18:10.635Z,1.73
2018-07-08T17:20:39.649Z,1.60
2018-07-08T17:23:08.497Z,1.77
2018-07-08T17:25:37.508Z,1.30
2018-07-08T17:28:06.878Z,1.57
2018-07-08T17:30:35.851Z,1.30
2018-07-08T17:33:04.852Z,1.53
2018-07-08T17:35:33.917Z,1.63
2018-07-08T17:38:03.090Z,1.53
2018-07-08T17:40:32.837Z,1.47
2018-07-08T17:43:01.691Z,1.20
2018-07-08T17:45:32.733Z,1.50
2018-07-08T17:48:01.755Z,1.73
2018-07-08T17:50:30.933Z,1.30
2018-07-08T17:52:59.911Z,1.43
2018-07-08T17:55:28.947Z,1.90
2018-07-08T17:57:58.103Z,1.50
2018-07-08T18:00:26.998Z,1.20
2018-07-08T18:02:55.769Z,1.50
2018-07-08T18:05:25.018Z,1.90
2018-07-08T18:07:53.773Z,2.07
2018-07-08T18:10:22.782Z,1.90
2018-07-08T18:12:51.783Z,2.47
2018-07-08T18:15:20.859Z,2.77
2018-07-08T18:17:50.216Z,2.10
2018-07-08T18:20:19.111Z,3.23
2018-07-08T18:22:48.295Z,2.83
2018-07-08T18:25:17.302Z,2.10
2018-07-08T18:27:46.435Z,2.63
2018-07-08T18:30:15.267Z,2.50
2018-07-08T18:32:44.324Z,3.47
2018-07-08T18:35:13.644Z,5.00
2018-07-08T18:37:42.654Z,3.93
2018-07-08T18:40:11.733Z,6.30
2018-07-08T18:42:40.788Z,7.30
2018-07-08T18:45:10.526Z,2.83
2018-07-08T18:47:39.576Z,3.57
2018-07-08T18:50:08.498Z,8.03
2018-07-08T18:52:37.480Z,4.40
2018-07-08T18:55:06.356Z,3.20
2018-07-08T18:57:35.434Z,2.47
2018-07-08T19:00:04.780Z,3.27
2018-07-08T19:02:33.870Z,3.73
2018-07-08T19:05:02.958Z,3.47
2018-07-08T19:07:33.748Z,2.40
2018-07-08T19:10:03.023Z,2.83
2018-07-08T19:12:32.594Z,2.67
2018-07-08T19:15:02.049Z,2.73
2018-07-08T19:17:31.135Z,2.73
2018-07-08T19:19:59.953Z,3.10
2018-07-08T19:22:28.855Z,2.90
2018-07-08T19:24:58.387Z,2.70
2018-07-08T19:27:27.254Z,7.97
2018-07-08T19:29:56.279Z,3.27
2018-07-08T19:32:25.254Z,2.70
2018-07-08T19:34:54.303Z,3.33
2018-07-08T19:37:23.227Z,2.77
2018-07-08T19:39:52.237Z,3.57
2018-07-08T19:42:21.128Z,2.90
2018-07-08T19:44:50.059Z,2.77
2018-07-08T19:47:19.344Z,2.90
2018-07-08T19:49:49.291Z,2.60
2018-07-08T19:52:18.401Z,3.97
2018-07-08T19:54:47.267Z,3.07
2018-07-08T19:57:16.757Z,3.73
2018-07-08T19:59:45.840Z,3.63
2018-07-08T20:02:14.843Z,3.10
2018-07-08T20:04:43.975Z,3.10
2018-07-08T20:07:13.087Z,3.00
2018-07-08T20:09:42.432Z,3.00
2018-07-08T20:12:11.325Z,3.40
2018-07-08T20:14:40.762Z,4.33
2018-07-08T20:17:10.960Z,4.77
2018-07-08T20:19:40.147Z,4.67
2018-07-08T20:22:09.417Z,3.80
2018-07-08T20:24:38.607Z,3.83
2018-07-08T20:27:07.723Z,3.70
2018-07-08T20:29:36.778Z,3.60
2018-07-08T20:32:06.384Z,3.33
2018-07-08T20:34:35.979Z,3.37
2018-07-08T20:37:04.841Z,4.00
2018-07-08T20:39:33.662Z,3.20
2018-07-08T20:42:02.781Z,4.00
2018-07-08T20:44:31.707Z,3.10
2018-07-08T20:47:00.950Z,2.77
2018-07-08T20:49:29.913Z,2.70
2018-07-08T20:51:59.537Z,3.90
2018-07-08T20:54:28.422Z,3.00
2018-07-08T20:56:57.604Z,3.67
2018-07-08T20:59:26.566Z,3.87
2018-07-08T21:01:55.795Z,3.57
2018-07-08T21:04:24.535Z,4.20
2018-07-08T21:06:53.252Z,3.50
2018-07-08T21:09:22.206Z,3.97
2018-07-08T21:11:51.242Z,3.00
2018-07-08T21:14:20.488Z,3.13
2018-07-08T21:16:49.420Z,3.17
2018-07-08T21:19:19.586Z,3.20
2018-07-08T21:21:48.829Z,3.63
2018-07-08T21:24:17.750Z,3.53
2018-07-08T21:26:46.785Z,3.70
2018-07-08T21:29:15.731Z,3.40
2018-07-08T21:31:45.439Z,3.60
2018-07-08T21:34:14.341Z,3.83
2018-07-08T21:36:43.477Z,3.67
2018-07-08T21:39:12.767Z,3.33
2018-07-08T21:41:42.605Z,3.40
2018-07-08T21:44:11.517Z,3.87
2018-07-08T21:46:40.788Z,3.40
2018-07-08T21:49:09.774Z,3.87
2018-07-08T21:51:38.887Z,3.40
2018-07-08T21:54:07.850Z,3.40
2018-07-08T21:56:36.757Z,3.97
2018-07-08T21:59:05.761Z,3.40
2018-07-08T22:01:46.778Z,4.23
2018-07-08T22:04:15.808Z,3.77
2018-07-08T22:06:44.788Z,3.60
2018-07-08T22:09:13.808Z,3.43
2018-07-08T22:11:42.789Z,4.03
2018-07-08T22:14:12.075Z,3.73
2018-07-08T22:16:41.074Z,3.37
2018-07-08T22:19:10.044Z,3.13
2018-07-08T22:21:38.997Z,3.60
2018-07-08T22:24:08.162Z,4.27
2018-07-08T22:26:37.155Z,4.20
2018-07-08T22:29:06.271Z,4.67
2018-07-08T22:31:35.097Z,4.03
2018-07-08T22:34:04.163Z,3.70
2018-07-08T22:36:32.878Z,3.77
2018-07-08T22:39:02.114Z,3.70
2018-07-08T22:41:31.139Z,4.03
2018-07-08T22:44:00.003Z,3.93
2018-07-08T22:46:28.918Z,4.33
2018-07-08T22:48:57.997Z,4.93
2018-07-08T22:51:27.135Z,4.17
2018-07-08T22:53:56.386Z,5.07
2018-07-08T22:56:25.674Z,4.50
2018-07-08T22:58:54.801Z,4.53
2018-07-08T23:01:34.825Z,4.07
2018-07-08T23:04:03.814Z,3.90
2018-07-08T23:06:33.210Z,4.60
2018-07-08T23:09:01.933Z,3.90
2018-07-08T23:11:31.056Z,4.60
2018-07-08T23:14:00.516Z,3.73
2018-07-08T23:16:29.823Z,4.50
2018-07-08T23:18:58.711Z,3.97
2018-07-08T23:21:27.603Z,4.40
2018-07-08T23:23:56.401Z,4.60
2018-07-08T23:26:25.681Z,4.60
2018-07-08T23:28:54.749Z,3.50
2018-07-08T23:31:23.561Z,3.57
2018-07-08T23:33:52.587Z,3.80
2018-07-08T23:36:21.730Z,4.80
2018-07-08T23:38:50.754Z,3.60
2018-07-08T23:41:19.665Z,4.17
2018-07-08T23:43:48.502Z,4.33
2018-07-08T23:46:17.347Z,4.30
2018-07-08T23:48:46.232Z,4.60
2018-07-08T23:51:15.099Z,4.63
2018-07-08T23:53:43.935Z,4.67
2018-07-08T23:56:12.843Z,4.60
2018-07-08T23:58:41.699Z,3.87
